Time;durP1;ratioP1;P1;durP2;ratioP2;P2;SDS_P1;SDS_P2;PMS_P1;PMS_P2;Temp;Humidity;BMP_temperature;BMP_pressure;BME280_temperature;BME280_humidity;BME280_pressure;Samples;Min_cycle;Max_cycle;Signal;HPM_P1;HPM_P2
2020/12/16 00:02:02;;;;;;;3.70;2.42;;;;;;;13.81;55.32;101385.25;4979983;28;20049;-44
2020/12/16 00:04:29;;;;;;;1.65;1.05;;;;;;;13.77;55.15;101376.84;4987091;28;20061;-42
2020/12/16 00:06:55;;;;;;;2.63;1.13;;;;;;;13.67;56.24;101373.97;4983894;28;20403;-43
2020/12/16 00:09:20;;;;;;;5.93;1.45;;;;;;;13.78;55.66;101369.59;4985972;28;20030;-43
2020/12/16 00:11:46;;;;;;;3.72;2.00;;;;;;;13.72;55.92;101376.75;4983241;28;20125;-42
2020/12/16 00:14:11;;;;;;;3.50;1.92;;;;;;;13.68;56.15;101372.09;4985889;28;20439;-42
2020/12/16 00:16:37;;;;;;;7.78;5.47;;;;;;;13.68;56.84;101366.72;4986854;28;20042;-42
2020/12/16 00:19:02;;;;;;;9.45;5.20;;;;;;;13.67;56.85;101362.38;4976503;28;20835;-43
2020/12/16 00:21:31;;;;;;;4.95;3.65;;;;;;;13.64;56.98;101370.94;4981648;28;20141;-41
2020/12/16 00:23:57;;;;;;;5.80;2.97;;;;;;;13.53;56.72;101376.16;4981817;28;20038;-41
2020/12/16 00:26:22;;;;;;;4.57;2.80;;;;;;;13.48;56.67;101365.31;4989000;28;20058;-46
2020/12/16 00:28:48;;;;;;;8.00;4.10;;;;;;;13.59;56.31;101369.00;4983190;28;20046;-42
2020/12/16 00:31:14;;;;;;;8.15;2.45;;;;;;;13.59;56.68;101369.81;4985283;28;20045;-45
2020/12/16 00:33:40;;;;;;;1.52;0.90;;;;;;;13.47;56.49;101368.25;4983279;28;20030;-41
2020/12/16 00:36:06;;;;;;;4.20;2.28;;;;;;;13.53;56.96;101372.66;4985077;28;20093;-44
2020/12/16 00:38:31;;;;;;;3.83;2.60;;;;;;;13.40;56.94;101376.47;4984921;28;20030;-43
2020/12/16 00:40:57;;;;;;;4.53;3.30;;;;;;;13.38;57.39;101378.59;4977312;28;20031;-43
2020/12/16 00:43:22;;;;;;;7.70;4.05;;;;;;;13.40;57.27;101376.47;4976238;28;20054;-40
2020/12/16 00:45:48;;;;;;;5.07;3.63;;;;;;;13.42;56.68;101372.47;4977731;28;20501;-41
2020/12/16 00:48:14;;;;;;;5.78;3.38;;;;;;;13.45;57.20;101365.81;4975662;28;20047;-43
2020/12/16 00:50:39;;;;;;;6.70;4.00;;;;;;;13.39;57.62;101369.44;4977597;28;20058;-43
2020/12/16 00:53:05;;;;;;;4.05;2.90;;;;;;;13.32;56.93;101376.88;4984136;28;20042;-46
2020/12/16 00:55:30;;;;;;;5.03;3.50;;;;;;;13.20;57.51;101375.03;4983940;28;20481;-42
2020/12/16 00:57:56;;;;;;;5.35;3.30;;;;;;;13.26;57.33;101365.16;4982958;28;20035;-42
2020/12/16 01:00:22;;;;;;;5.00;3.33;;;;;;;13.36;56.71;101370.78;4984308;28;20550;-41
2020/12/16 01:02:49;;;;;;;6.35;3.45;;;;;;;13.27;57.21;101358.72;4982255;28;20066;-41
2020/12/16 01:05:20;;;;;;;5.00;2.10;;;;;;;13.23;57.35;101369.16;4984810;28;20042;-43
2020/12/16 01:07:45;;;;;;;5.27;2.47;;;;;;;13.18;57.08;101368.25;4984137;28;20233;-43
2020/12/16 01:10:13;;;;;;;3.60;2.40;;;;;;;13.16;57.69;101370.34;4984556;28;20485;-42
2020/12/16 01:12:40;;;;;;;12.02;3.28;;;;;;;13.22;57.59;101372.09;4982379;28;20034;-40
2020/12/16 01:15:11;;;;;;;4.38;3.13;;;;;;;13.19;58.15;101373.38;4983856;28;20051;-41
2020/12/16 01:17:40;;;;;;;12.45;3.38;;;;;;;13.13;57.99;101374.38;4982556;28;20030;-44
2020/12/16 01:20:10;;;;;;;9.93;3.92;;;;;;;13.05;58.25;101374.75;4984399;28;20096;-42
2020/12/16 01:22:46;;;;;;;6.15;4.55;;;;;;;12.96;58.70;101368.91;4982959;28;20042;-42
2020/12/16 01:25:14;;;;;;;5.75;2.78;;;;;;;12.89;58.50;101373.63;4982028;28;20038;-41
2020/12/16 01:27:39;;;;;;;6.80;4.07;;;;;;;12.98;58.39;101374.88;4982530;28;20100;-41
2020/12/16 01:30:07;;;;;;;13.93;7.32;;;;;;;13.00;58.68;101370.06;4983571;28;20113;-43
2020/12/16 01:32:32;;;;;;;14.23;6.03;;;;;;;13.06;58.73;101376.38;4976036;28;20623;-45
2020/12/16 01:34:59;;;;;;;10.52;6.20;;;;;;;12.95;59.35;101367.28;4976224;28;20038;-40
2020/12/16 01:37:25;;;;;;;7.88;5.05;;;;;;;12.89;59.39;101370.13;4974764;28;20375;-47
2020/12/16 01:39:50;;;;;;;11.93;5.65;;;;;;;12.74;59.42;101366.06;4977178;28;20026;-43
2020/12/16 01:42:16;;;;;;;11.95;5.57;;;;;;;12.69;59.89;101365.94;4974907;28;20042;-47
2020/12/16 01:44:42;;;;;;;7.05;4.88;;;;;;;12.72;59.51;101361.97;4977447;28;20039;-43
2020/12/16 01:47:07;;;;;;;7.22;4.72;;;;;;;12.78;59.60;101367.22;4974690;28;20042;-42
2020/12/16 01:49:33;;;;;;;6.35;5.43;;;;;;;12.76;59.43;101369.34;4982514;28;20030;-41
2020/12/16 01:52:03;;;;;;;6.28;4.55;;;;;;;12.72;60.01;101367.38;4975892;28;20573;-40
2020/12/16 01:54:29;;;;;;;7.82;3.65;;;;;;;12.72;59.24;101367.38;4975590;28;20503;-44
2020/12/16 01:56:56;;;;;;;11.88;4.20;;;;;;;12.75;59.22;101358.81;4975951;28;20046;-43
2020/12/16 01:59:22;;;;;;;4.07;2.63;;;;;;;12.72;59.29;101360.09;4974770;28;20044;-41
2020/12/16 02:01:52;;;;;;;5.65;3.83;;;;;;;12.64;59.27;101357.78;4977206;28;20042;-44
2020/12/16 02:04:33;;;;;;;6.43;2.63;;;;;;;12.72;59.08;101354.72;4974747;28;20134;-42
2020/12/16 02:06:58;;;;;;;3.93;2.40;;;;;;;12.68;58.95;101358.94;4982551;28;20046;-42
2020/12/16 02:09:24;;;;;;;8.07;5.57;;;;;;;12.60;59.90;101356.63;4983701;28;20030;-44
2020/12/16 02:11:50;;;;;;;9.82;7.05;;;;;;;12.66;60.15;101366.44;4981215;28;20031;-41
2020/12/16 02:14:15;;;;;;;13.45;5.57;;;;;;;12.63;60.52;101364.22;4983545;28;20447;-44
2020/12/16 02:16:42;;;;;;;7.30;4.70;;;;;;;12.58;60.08;101373.00;4981000;28;20045;-43
2020/12/16 02:19:09;;;;;;;9.13;6.65;;;;;;;12.48;60.75;101362.84;4974222;28;20042;-44
2020/12/16 02:21:35;;;;;;;5.38;4.88;;;;;;;12.60;60.59;101362.81;4976019;28;20078;-42
2020/12/16 02:24:05;;;;;;;7.00;4.45;;;;;;;12.50;60.44;101370.69;4977336;28;20058;-43
2020/12/16 02:26:39;;;;;;;6.10;4.32;;;;;;;12.51;60.42;101363.44;4984332;28;20042;-43
2020/12/16 02:29:07;;;;;;;5.90;4.10;;;;;;;12.39;60.69;101369.63;4983077;28;20030;-42
2020/12/16 02:31:36;;;;;;;14.63;4.28;;;;;;;12.43;60.33;101367.28;4982260;28;20042;-43
2020/12/16 02:34:02;;;;;;;6.82;3.47;;;;;;;12.31;60.49;101367.31;4982534;28;20456;-41
2020/12/16 02:36:27;;;;;;;8.50;4.05;;;;;;;12.23;60.89;101363.09;4977419;28;20337;-40
2020/12/16 02:38:54;;;;;;;8.85;4.47;;;;;;;12.33;60.58;101353.66;4975857;28;20030;-42
2020/12/16 02:41:20;;;;;;;4.45;2.38;;;;;;;12.32;60.30;101362.75;4973897;28;20117;-43
2020/12/16 02:43:46;;;;;;;4.22;3.13;;;;;;;12.22;60.23;101364.19;4976642;28;20089;-45
2020/12/16 02:46:12;;;;;;;3.55;2.25;;;;;;;12.26;60.04;101349.19;4974202;28;20038;-41
2020/12/16 02:48:37;;;;;;;3.00;1.55;;;;;;;12.25;59.91;101360.19;4975857;28;20792;-43
2020/12/16 02:51:03;;;;;;;5.03;2.67;;;;;;;12.37;59.85;101358.31;4974271;28;20139;-42
2020/12/16 02:53:28;;;;;;;5.28;2.80;;;;;;;12.39;59.57;101353.50;4974883;28;20029;-42
2020/12/16 02:55:54;;;;;;;8.25;3.13;;;;;;;12.47;59.11;101353.16;4975996;28;20057;-44
2020/12/16 02:58:19;;;;;;;5.78;2.83;;;;;;;12.37;59.62;101352.91;4973867;28;20035;-41
2020/12/16 03:00:45;;;;;;;3.80;2.47;;;;;;;12.30;60.09;101347.66;4976864;28;20395;-42
2020/12/16 03:03:10;;;;;;;13.80;2.55;;;;;;;12.31;59.48;101343.13;4982093;28;20112;-42
2020/12/16 03:05:36;;;;;;;4.57;2.70;;;;;;;12.39;59.59;101340.06;4981869;28;20153;-46
2020/12/16 03:08:06;;;;;;;4.03;1.98;;;;;;;12.36;60.34;101337.84;4982618;28;20062;-42
2020/12/16 03:10:31;;;;;;;5.97;2.50;;;;;;;12.22;60.27;101336.44;4982257;28;20121;-42
2020/12/16 03:12:57;;;;;;;3.30;1.73;;;;;;;12.19;59.86;101335.06;4981889;28;20114;-41
2020/12/16 03:15:22;;;;;;;4.13;1.90;;;;;;;11.99;60.62;101337.28;4985779;28;20026;-41
2020/12/16 03:17:48;;;;;;;2.30;1.33;;;;;;;11.97;60.49;101331.34;4980351;28;20564;-44
2020/12/16 03:20:13;;;;;;;2.92;2.13;;;;;;;12.05;60.50;101329.13;4983218;28;20045;-42
2020/12/16 03:22:38;;;;;;;2.47;1.83;;;;;;;12.10;60.53;101323.84;4982920;28;20041;-40
2020/12/16 03:25:04;;;;;;;3.25;2.45;;;;;;;12.15;60.17;101322.31;4987545;28;20093;-42
2020/12/16 03:27:29;;;;;;;1.55;1.02;;;;;;;12.01;60.53;101327.97;4985928;28;20069;-42
2020/12/16 03:29:55;;;;;;;6.45;1.02;;;;;;;12.07;60.56;101318.94;4984528;28;20039;-42
2020/12/16 03:32:20;;;;;;;2.67;1.35;;;;;;;12.11;60.46;101324.66;4986231;28;20035;-43
2020/12/16 03:34:46;;;;;;;3.17;2.08;;;;;;;11.97;60.60;101329.47;4984152;28;20047;-43
2020/12/16 03:37:11;;;;;;;2.88;1.88;;;;;;;12.06;60.43;101321.84;4986180;28;20129;-41
2020/12/16 03:39:36;;;;;;;2.30;1.33;;;;;;;12.03;60.96;101322.34;4984337;28;20561;-44
2020/12/16 03:42:02;;;;;;;6.85;1.60;;;;;;;12.00;60.57;101309.38;4985503;28;20384;-46
2020/12/16 03:44:28;;;;;;;3.90;2.15;;;;;;;11.89;61.01;101317.16;4985621;28;20390;-42
2020/12/16 03:46:53;;;;;;;5.28;3.47;;;;;;;11.90;60.90;101317.97;4983872;28;20447;-45
2020/12/16 03:49:19;;;;;;;11.02;4.40;;;;;;;11.98;60.71;101312.28;4985930;28;20460;-40
2020/12/16 03:51:52;;;;;;;4.88;2.90;;;;;;;11.98;61.21;101309.59;4983547;28;20125;-42
2020/12/16 03:54:18;;;;;;;6.93;2.45;;;;;;;12.03;61.18;101307.03;4985718;28;20035;-41
2020/12/16 03:56:43;;;;;;;2.80;2.45;;;;;;;12.05;60.75;101309.50;4984224;28;20045;-40
2020/12/16 03:59:09;;;;;;;3.88;2.63;;;;;;;11.94;61.12;101319.19;4981860;28;20038;-41
2020/12/16 04:01:34;;;;;;;3.15;1.60;;;;;;;11.77;60.90;101320.91;4978297;28;20109;-42
2020/12/16 04:04:02;;;;;;;2.35;1.23;;;;;;;11.77;60.82;101316.34;4977478;28;20058;-43
2020/12/16 04:06:28;;;;;;;2.28;1.30;;;;;;;11.68;61.19;101313.19;4977048;28;20039;-40
2020/12/16 04:08:54;;;;;;;2.20;1.85;;;;;;;11.61;61.64;101309.00;4978276;28;20483;-44
2020/12/16 04:11:19;;;;;;;9.75;2.38;;;;;;;11.73;61.69;101305.25;4976549;28;20098;-41
2020/12/16 04:13:45;;;;;;;4.93;2.58;;;;;;;11.79;61.14;101308.88;4978781;28;20118;-46
2020/12/16 04:16:14;;;;;;;4.70;2.13;;;;;;;11.82;61.24;101300.34;4979835;28;20042;-43
2020/12/16 04:18:39;;;;;;;4.85;2.35;;;;;;;11.89;61.19;101303.75;4982777;28;20053;-42
2020/12/16 04:21:06;;;;;;;4.93;3.25;;;;;;;11.89;60.76;101309.09;4985038;28;20031;-44
2020/12/16 04:23:32;;;;;;;4.35;3.47;;;;;;;11.88;60.99;101301.28;4984120;28;20030;-41
2020/12/16 04:25:58;;;;;;;10.70;5.28;;;;;;;11.85;61.47;101309.81;4987222;28;20061;-43
2020/12/16 04:28:23;;;;;;;7.22;3.47;;;;;;;11.73;61.40;101307.13;4984848;28;20057;-41
2020/12/16 04:30:49;;;;;;;5.78;2.65;;;;;;;11.74;61.16;101306.06;4982732;28;20364;-44
2020/12/16 04:33:14;;;;;;;5.63;2.10;;;;;;;11.77;60.71;101302.91;4984600;28;20112;-40
2020/12/16 04:35:40;;;;;;;6.10;3.03;;;;;;;11.79;61.20;101305.38;4982872;28;20038;-41
2020/12/16 04:38:05;;;;;;;9.93;3.45;;;;;;;11.71;61.42;101304.69;4984156;28;20084;-42
2020/12/16 04:40:31;;;;;;;4.93;3.47;;;;;;;11.77;61.07;101299.41;4984098;28;20030;-42
2020/12/16 04:43:21;;;;;;;4.40;3.22;;;;;;;11.76;61.00;101303.16;4983302;28;20634;-41
2020/12/16 04:45:48;;;;;;;5.22;3.78;;;;;;;11.78;61.19;101306.41;4983857;28;20129;-47
2020/12/16 04:48:15;;;;;;;5.43;2.30;;;;;;;11.82;61.33;101321.03;4984932;28;20045;-40
2020/12/16 04:50:42;;;;;;;4.70;2.40;;;;;;;11.69;61.35;101328.28;4981996;28;20038;-45
2020/12/16 04:53:10;;;;;;;2.97;2.30;;;;;;;11.50;61.70;101324.03;4984503;28;20030;-40
2020/12/16 04:55:36;;;;;;;2.63;1.92;;;;;;;11.53;62.33;101320.88;4983241;28;20065;-42
2020/12/16 04:58:03;;;;;;;7.18;4.15;;;;;;;11.41;62.29;101323.53;4983549;28;20034;-42
2020/12/16 05:00:30;;;;;;;7.70;3.13;;;;;;;11.39;62.79;101322.13;4984073;28;20122;-40
2020/12/16 05:02:58;;;;;;;7.18;4.20;;;;;;;11.34;62.71;101331.72;4982443;28;20362;-40
2020/12/16 05:05:24;;;;;;;4.40;2.92;;;;;;;11.30;62.76;101313.59;4984497;28;20069;-44
2020/12/16 05:07:50;;;;;;;5.45;2.90;;;;;;;11.35;62.59;101322.59;4981565;28;20030;-44
2020/12/16 05:10:35;;;;;;;3.63;2.55;;;;;;;11.49;62.33;101322.41;4984487;28;20134;-44
2020/12/16 05:13:12;;;;;;;5.63;3.13;;;;;;;11.43;62.45;101329.53;4983117;28;20388;-43
2020/12/16 05:15:40;;;;;;;5.78;2.78;;;;;;;11.48;62.68;101323.44;4982502;28;20066;-43
2020/12/16 05:18:11;;;;;;;10.10;3.35;;;;;;;11.58;62.25;101331.75;4983500;28;20042;-45
2020/12/16 05:20:43;;;;;;;4.15;2.53;;;;;;;11.43;62.42;101321.47;4982373;28;20038;-41
2020/12/16 05:23:09;;;;;;;3.30;2.75;;;;;;;11.45;62.82;101332.78;4978603;28;20074;-40
2020/12/16 05:25:35;;;;;;;5.72;2.80;;;;;;;11.50;62.25;101330.22;4985001;28;20081;-41
2020/12/16 05:28:02;;;;;;;6.82;2.17;;;;;;;11.48;62.28;101329.66;4983059;28;20100;-46
2020/12/16 05:30:28;;;;;;;3.08;1.63;;;;;;;11.41;62.36;101336.16;4983292;28;20039;-42
2020/12/16 05:32:54;;;;;;;4.90;3.45;;;;;;;11.34;62.80;101339.78;4982061;28;20126;-42
2020/12/16 05:35:21;;;;;;;8.48;3.83;;;;;;;11.36;62.61;101336.84;4983538;28;20709;-41
2020/12/16 05:37:47;;;;;;;8.35;4.72;;;;;;;11.49;62.42;101333.13;4981012;28;20037;-41
2020/12/16 05:40:20;;;;;;;7.95;4.90;;;;;;;11.61;62.07;101331.28;4983786;28;20034;-44
2020/12/16 05:42:50;;;;;;;3.70;2.88;;;;;;;11.66;61.94;101330.59;4981151;28;20039;-42
2020/12/16 05:45:19;;;;;;;2.22;1.85;;;;;;;11.58;62.13;101336.31;4983139;28;20092;-41
2020/12/16 05:48:01;;;;;;;2.42;1.92;;;;;;;11.46;62.35;101326.34;4980977;28;20498;-41
2020/12/16 05:50:40;;;;;;;4.25;2.72;;;;;;;11.40;62.48;101326.47;4983100;28;20104;-41
2020/12/16 05:53:14;;;;;;;5.28;3.35;;;;;;;11.39;62.54;101328.31;4982024;28;20031;-41
2020/12/16 05:55:40;;;;;;;7.75;4.32;;;;;;;11.31;62.62;101331.34;4976769;28;20035;-44
2020/12/16 05:58:14;;;;;;;8.48;2.47;;;;;;;11.30;62.95;101327.84;4974252;28;20081;-43
2020/12/16 06:00:46;;;;;;;6.75;3.10;;;;;;;11.27;63.10;101336.38;4976835;28;20506;-41
2020/12/16 06:03:20;;;;;;;11.68;9.25;;;;;;;11.28;63.22;101331.81;4974487;28;20065;-41
2020/12/16 06:06:07;;;;;;;5.47;4.55;;;;;;;11.42;62.66;101327.88;4977187;28;20061;-41
2020/12/16 06:08:43;;;;;;;3.38;2.92;;;;;;;11.41;62.65;101326.22;4975448;28;20392;-44
2020/12/16 06:11:11;;;;;;;10.52;4.00;;;;;;;11.24;63.28;101328.78;4974536;28;20041;-42
2020/12/16 06:13:38;;;;;;;15.73;8.38;;;;;;;11.25;63.31;101335.75;4975845;28;20058;-45
2020/12/16 06:16:08;;;;;;;9.95;7.43;;;;;;;11.28;63.31;101334.50;4974948;28;20043;-43
2020/12/16 06:18:37;;;;;;;7.30;5.88;;;;;;;11.39;63.09;101338.25;4975309;28;20114;-42
2020/12/16 06:21:04;;;;;;;14.25;6.20;;;;;;;11.37;62.96;101349.22;4974838;28;20149;-44
2020/12/16 06:23:35;;;;;;;9.15;5.55;;;;;;;11.35;63.32;101335.22;4979809;28;20145;-45
2020/12/16 06:26:02;;;;;;;30.85;10.70;;;;;;;11.13;64.83;101335.75;4981941;28;20039;-43
2020/12/16 06:28:28;;;;;;;11.63;6.97;;;;;;;11.10;64.34;101336.19;4982717;28;20593;-41
2020/12/16 06:31:05;;;;;;;7.88;5.60;;;;;;;11.14;64.04;101342.72;4981099;28;20035;-44
2020/12/16 06:33:47;;;;;;;12.40;8.27;;;;;;;11.26;63.74;101340.09;4981957;28;20034;-40
2020/12/16 06:36:13;;;;;;;15.93;6.82;;;;;;;11.27;63.49;101339.06;4977783;28;20393;-42
2020/12/16 06:38:40;;;;;;;16.52;6.88;;;;;;;11.25;63.43;101338.44;4975293;28;20031;-41
2020/12/16 06:41:11;;;;;;;15.98;9.60;;;;;;;11.34;63.47;101346.97;4973989;28;20133;-40
2020/12/16 06:43:42;;;;;;;16.35;9.88;;;;;;;11.42;63.09;101345.84;4975599;28;20803;-43
2020/12/16 06:46:46;;;;;;;11.85;6.75;;;;;;;11.35;63.37;101343.25;4974238;28;20089;-42
2020/12/16 06:49:18;;;;;;;7.30;5.10;;;;;;;11.34;63.23;101350.50;4977940;28;20042;-43
2020/12/16 06:51:45;;;;;;;7.93;7.05;;;;;;;11.35;63.30;101356.69;4979565;28;20077;-44
2020/12/16 06:54:19;;;;;;;14.00;5.93;;;;;;;11.42;63.19;101352.03;4982056;28;20045;-42
2020/12/16 06:56:48;;;;;;;11.20;5.13;;;;;;;11.41;62.93;101353.06;4978865;28;20070;-42
2020/12/16 06:59:32;;;;;;;10.13;5.63;;;;;;;11.42;63.40;101352.03;4977767;28;20023;-41
2020/12/16 07:02:12;;;;;;;10.32;4.55;;;;;;;11.46;63.45;101358.56;4985897;28;20153;-42
2020/12/16 07:04:37;;;;;;;10.27;4.75;;;;;;;11.44;63.35;101363.34;4985470;28;20080;-43
2020/12/16 07:07:03;;;;;;;8.57;3.53;;;;;;;11.54;62.95;101368.19;4985825;28;20476;-42
2020/12/16 07:09:33;;;;;;;6.80;3.90;;;;;;;11.62;63.25;101353.59;4985457;28;20034;-40
2020/12/16 07:12:00;;;;;;;5.53;3.43;;;;;;;11.72;62.47;101357.34;4985377;28;20805;-42
2020/12/16 07:14:35;;;;;;;4.40;1.98;;;;;;;11.96;61.28;101353.91;4983092;28;20034;-40
2020/12/16 07:17:05;;;;;;;2.28;1.30;;;;;;;12.08;62.25;101358.22;4978881;28;20069;-42
2020/12/16 07:19:31;;;;;;;7.55;1.85;;;;;;;12.21;61.84;101353.66;4979064;28;20062;-42
2020/12/16 07:21:56;;;;;;;4.05;2.80;;;;;;;12.30;62.26;101357.59;4983373;28;20070;-42
2020/12/16 07:24:23;;;;;;;11.07;4.95;;;;;;;12.41;62.51;101361.34;4986481;28;20038;-40
2020/12/16 07:26:53;;;;;;;6.20;4.82;;;;;;;12.51;62.04;101368.81;4984405;28;20042;-42
2020/12/16 07:29:28;;;;;;;11.23;4.88;;;;;;;12.53;62.12;101366.69;4975720;28;20100;-42
2020/12/16 07:32:02;;;;;;;5.35;3.63;;;;;;;12.62;63.82;101367.97;4980568;28;20049;-39
2020/12/16 07:34:28;;;;;;;4.55;2.75;;;;;;;12.58;63.82;101370.31;4974836;28;20055;-46
2020/12/16 07:36:59;;;;;;;8.52;2.85;;;;;;;12.70;63.42;101374.84;4982806;28;20077;-43
2020/12/16 07:39:25;;;;;;;4.57;2.58;;;;;;;12.69;64.81;101379.41;4982394;28;20117;-49
2020/12/16 07:41:51;;;;;;;7.50;1.88;;;;;;;12.66;63.98;101375.31;4982867;28;20130;-44
2020/12/16 07:44:17;;;;;;;5.15;3.17;;;;;;;12.77;63.57;101373.66;4974048;28;20094;-47
2020/12/16 07:46:42;;;;;;;6.30;4.50;;;;;;;12.85;62.50;101375.97;4986180;28;20042;-43
2020/12/16 07:49:12;;;;;;;4.63;2.60;;;;;;;12.77;62.10;101381.72;4974044;28;20503;-42
2020/12/16 07:51:38;;;;;;;20.70;5.15;;;;;;;12.78;62.17;101387.91;4978025;28;20047;-48
2020/12/16 07:54:04;;;;;;;8.27;4.93;;;;;;;12.79;61.24;101387.69;4974492;28;20043;-43
2020/12/16 07:56:30;;;;;;;18.33;4.68;;;;;;;12.78;61.03;101388.75;4981978;28;20035;-43
2020/12/16 07:58:55;;;;;;;9.48;5.57;;;;;;;12.82;60.84;101394.47;4981972;28;20066;-41
2020/12/16 08:01:21;;;;;;;6.22;5.32;;;;;;;12.85;61.04;101392.13;4982935;28;20062;-44
2020/12/16 08:03:47;;;;;;;8.30;3.20;;;;;;;12.87;60.82;101391.91;4976342;28;20369;-44
2020/12/16 08:06:13;;;;;;;6.05;3.50;;;;;;;12.89;60.77;101394.34;4980257;28;20027;-48
2020/12/16 08:08:48;;;;;;;3.38;2.35;;;;;;;12.82;61.12;101399.88;4979782;28;20065;-47
2020/12/16 08:11:18;;;;;;;5.10;2.72;;;;;;;12.82;63.68;101397.97;4980358;28;20855;-43
2020/12/16 08:13:45;;;;;;;5.65;2.08;;;;;;;12.93;63.73;101395.50;4979909;28;20027;-44
2020/12/16 08:16:10;;;;;;;5.22;3.42;;;;;;;12.98;64.85;101401.00;4983318;28;20064;-48
2020/12/16 08:18:41;;;;;;;3.45;2.25;;;;;;;13.05;64.89;101412.44;4980391;28;20045;-42
2020/12/16 08:21:22;;;;;;;6.45;2.45;;;;;;;13.13;65.40;101414.75;4983170;28;20688;-43
2020/12/16 08:23:49;;;;;;;5.05;2.70;;;;;;;13.22;64.65;101416.00;4983530;28;20784;-43
2020/12/16 08:26:16;;;;;;;3.90;2.00;;;;;;;13.18;64.62;101416.72;4983234;28;20078;-49
2020/12/16 08:28:42;;;;;;;8.13;1.58;;;;;;;13.27;64.68;101417.13;4980181;28;20046;-45
2020/12/16 08:31:08;;;;;;;3.28;1.90;;;;;;;13.25;64.13;101414.69;4983033;28;20035;-44
2020/12/16 08:33:35;;;;;;;4.57;2.25;;;;;;;13.27;63.89;101409.06;4980499;28;20030;-46
2020/12/16 08:36:04;;;;;;;2.15;1.35;;;;;;;13.32;64.63;101404.59;4982699;28;20042;-45
2020/12/16 08:38:43;;;;;;;2.97;1.67;;;;;;;13.43;63.90;101413.72;4983236;28;20456;-48
2020/12/16 08:41:11;;;;;;;3.58;2.00;;;;;;;13.53;64.37;101411.19;4979746;28;20078;-47
2020/12/16 08:43:39;;;;;;;5.10;2.67;;;;;;;13.55;63.38;101419.03;4980528;28;20057;-49
2020/12/16 08:46:23;;;;;;;7.50;3.17;;;;;;;13.53;64.97;101427.34;4982590;28;20037;-44
2020/12/16 08:48:57;;;;;;;17.58;2.67;;;;;;;13.50;64.88;101424.31;4979251;28;20030;-46
2020/12/16 08:51:35;;;;;;;6.45;3.22;;;;;;;13.55;65.71;101425.25;4981622;28;20055;-47
2020/12/16 08:54:16;;;;;;;5.60;2.22;;;;;;;13.54;66.25;101426.28;4982028;28;20077;-45
2020/12/16 08:56:49;;;;;;;4.25;2.20;;;;;;;13.55;65.96;101419.88;4981427;28;20030;-48
2020/12/16 08:59:16;;;;;;;4.65;2.53;;;;;;;13.68;66.18;101426.00;4974674;28;20638;-42
2020/12/16 09:02:06;;;;;;;14.48;3.50;;;;;;;13.68;65.71;101434.09;4976284;28;20035;-45
2020/12/16 09:04:42;;;;;;;3.42;2.35;;;;;;;13.72;66.28;101430.66;4975283;28;20030;-44
2020/12/16 09:07:08;;;;;;;4.07;2.03;;;;;;;13.67;65.48;101433.25;4973585;28;20039;-42
2020/12/16 09:09:37;;;;;;;7.90;2.22;;;;;;;13.59;65.56;101434.47;4975009;28;20061;-40
2020/12/16 09:12:09;;;;;;;9.93;3.17;;;;;;;13.61;66.49;101437.75;4974975;28;20030;-41
2020/12/16 09:14:35;;;;;;;4.95;2.13;;;;;;;13.73;66.82;101439.56;4976351;28;20103;-44
2020/12/16 09:17:06;;;;;;;4.63;2.30;;;;;;;13.74;66.38;101439.31;4980443;28;20037;-41
2020/12/16 09:19:34;;;;;;;7.57;3.00;;;;;;;13.78;66.67;101445.84;4978547;28;20046;-43
2020/12/16 09:22:00;;;;;;;9.57;3.28;;;;;;;13.87;66.71;101446.28;4974000;28;20042;-44
2020/12/16 09:24:26;;;;;;;6.75;2.45;;;;;;;13.82;67.25;101451.56;4984714;28;20085;-44
2020/12/16 09:26:55;;;;;;;8.02;3.75;;;;;;;13.82;66.77;101456.97;4978559;28;20730;-43
2020/12/16 09:29:22;;;;;;;7.38;2.70;;;;;;;13.84;66.35;101456.72;4981836;28;20860;-45
2020/12/16 09:31:49;;;;;;;2.75;1.88;;;;;;;13.86;65.79;101460.00;4975176;28;20041;-44
2020/12/16 09:34:14;;;;;;;6.75;3.65;;;;;;;13.85;66.09;101451.09;4977620;28;20305;-41
2020/12/16 09:36:40;;;;;;;3.58;1.77;;;;;;;13.89;66.02;101459.50;4975105;28;20782;-43
2020/12/16 09:39:06;;;;;;;3.72;2.25;;;;;;;14.10;66.57;101456.06;4978032;28;20101;-43
2020/12/16 09:41:45;;;;;;;3.45;2.20;;;;;;;14.34;65.50;101451.34;4973791;28;20089;-41
2020/12/16 09:44:23;;;;;;;3.78;3.05;;;;;;;14.48;65.73;101456.38;4975985;28;20477;-44
2020/12/16 09:46:49;;;;;;;3.20;1.95;;;;;;;14.81;65.44;101460.91;4979588;28;20051;-44
2020/12/16 09:49:18;;;;;;;2.72;2.13;;;;;;;15.06;63.67;101456.88;4977922;28;20046;-48
2020/12/16 09:51:43;;;;;;;7.25;2.40;;;;;;;14.99;63.92;101449.00;4973534;28;20078;-43
2020/12/16 09:54:09;;;;;;;6.10;2.70;;;;;;;14.77;64.62;101453.56;4975654;28;20154;-48
2020/12/16 09:56:35;;;;;;;3.03;1.85;;;;;;;14.71;65.47;101464.28;4972889;28;20031;-49
2020/12/16 09:59:01;;;;;;;10.13;3.03;;;;;;;14.66;65.67;101475.03;4976726;28;20081;-48
2020/12/16 10:01:28;;;;;;;4.95;1.83;;;;;;;14.75;65.30;101476.22;4971583;28;20031;-47
2020/12/16 10:03:53;;;;;;;3.15;2.47;;;;;;;14.66;65.73;101477.72;4977656;28;20030;-48
2020/12/16 10:06:19;;;;;;;4.03;2.33;;;;;;;14.64;65.71;101468.22;4976057;28;20472;-46
2020/12/16 10:08:45;;;;;;;8.38;3.38;;;;;;;14.68;65.96;101475.56;4980382;28;20026;-44
2020/12/16 10:11:11;;;;;;;6.28;3.28;;;;;;;14.90;65.29;101474.78;4972901;28;20031;-45
2020/12/16 10:13:38;;;;;;;3.47;1.73;;;;;;;14.88;65.49;101476.91;4979205;28;20061;-42
2020/12/16 10:16:04;;;;;;;4.45;3.30;;;;;;;14.99;65.69;101475.16;4975586;28;20086;-47
2020/12/16 10:18:29;;;;;;;12.15;3.28;;;;;;;15.46;64.46;101470.06;4979581;28;20022;-44
2020/12/16 10:20:55;;;;;;;6.15;2.92;;;;;;;15.64;64.08;101476.19;4973772;28;20038;-47
2020/12/16 10:23:20;;;;;;;4.65;2.55;;;;;;;15.58;63.86;101478.00;4976005;28;20034;-44
2020/12/16 10:25:45;;;;;;;4.40;2.53;;;;;;;15.46;64.52;101470.06;4981852;28;20039;-44
2020/12/16 10:28:11;;;;;;;4.15;2.58;;;;;;;15.47;65.10;101471.66;4981142;28;20082;-45
2020/12/16 10:30:39;;;;;;;6.72;3.05;;;;;;;15.80;64.27;101463.66;4982587;28;20452;-46
2020/12/16 10:33:05;;;;;;;3.45;2.80;;;;;;;16.03;64.22;101465.19;4977678;28;20042;-42
2020/12/16 10:35:31;;;;;;;4.07;2.60;;;;;;;16.16;63.59;101462.03;4982555;28;20475;-45
2020/12/16 10:37:56;;;;;;;3.42;2.22;;;;;;;16.32;63.80;101454.88;4977947;28;20034;-45
2020/12/16 10:40:22;;;;;;;3.58;2.88;;;;;;;16.93;62.07;101457.09;4978735;28;20065;-45
2020/12/16 10:42:47;;;;;;;5.45;2.97;;;;;;;17.35;61.06;101449.94;4978122;28;20475;-48
2020/12/16 10:45:13;;;;;;;7.47;2.97;;;;;;;17.74;59.72;101450.28;4980558;28;20110;-44
2020/12/16 10:47:40;;;;;;;6.85;3.38;;;;;;;18.08;59.11;101448.94;4977362;28;20043;-45
2020/12/16 10:50:06;;;;;;;5.07;2.25;;;;;;;18.43;58.21;101445.38;4986148;28;20065;-42
2020/12/16 10:52:31;;;;;;;5.18;2.83;;;;;;;18.42;57.33;101445.63;4984724;28;20460;-42
2020/12/16 10:54:57;;;;;;;2.58;1.75;;;;;;;18.66;57.04;101434.97;4984198;28;20043;-46
2020/12/16 10:57:23;;;;;;;16.48;2.85;;;;;;;18.84;56.34;101431.66;4986837;28;20037;-49
2020/12/16 10:59:49;;;;;;;4.25;1.70;;;;;;;18.99;55.87;101433.53;4982803;28;20073;-46
2020/12/16 11:02:15;;;;;;;10.75;3.00;;;;;;;18.87;55.93;101427.59;4983530;28;20090;-46
2020/12/16 11:04:41;;;;;;;2.55;2.30;;;;;;;18.77;56.23;101425.69;4978358;28;20035;-43
2020/12/16 11:07:08;;;;;;;9.10;3.70;;;;;;;19.00;56.27;101431.59;4976580;28;20038;-47
2020/12/16 11:09:33;;;;;;;5.95;2.63;;;;;;;19.00;56.05;101432.41;4977698;28;20831;-49
2020/12/16 11:12:00;;;;;;;6.60;2.50;;;;;;;19.25;55.35;101428.75;4978387;28;20042;-46
2020/12/16 11:14:26;;;;;;;5.43;4.20;;;;;;;19.30;55.56;101413.50;4979799;28;20515;-46
2020/12/16 11:16:53;;;;;;;8.40;3.88;;;;;;;19.42;55.25;101416.69;4979543;28;20125;-43
2020/12/16 11:19:18;;;;;;;9.30;4.53;;;;;;;19.47;55.27;101424.81;4977988;28;20027;-50
2020/12/16 11:21:49;;;;;;;15.25;5.10;;;;;;;19.59;55.07;101419.81;4980257;28;20133;-45
2020/12/16 11:24:16;;;;;;;8.75;3.63;;;;;;;19.65;54.59;101424.16;4981373;28;20775;-47
2020/12/16 11:26:47;;;;;;;12.32;5.00;;;;;;;19.63;54.11;101418.19;4984227;28;20116;-47
2020/12/16 11:29:15;;;;;;;4.35;3.35;;;;;;;19.91;53.25;101417.69;4985143;28;20096;-45